createdAt,value
2018-09-01T00:00:18.827Z,100
2018-09-01T00:01:24.559Z,100
2018-09-01T00:02:29.823Z,100
2018-09-01T00:03:35.664Z,100
2018-09-01T00:04:41.801Z,100
2018-09-01T00:05:47.417Z,100
2018-09-01T00:06:53.834Z,100
2018-09-01T00:07:59.459Z,100
2018-09-01T00:09:05.207Z,100
2018-09-01T00:10:08.567Z,100
2018-09-01T00:11:13.591Z,100
2018-09-01T00:12:17.140Z,100
2018-09-01T00:13:22.417Z,100
2018-09-01T00:14:28.347Z,100
2018-09-01T00:15:33.465Z,100
2018-09-01T00:16:38.188Z,100
2018-09-01T00:17:43.706Z,100
2018-09-01T00:18:48.565Z,100
2018-09-01T00:19:53.456Z,100
2018-09-01T00:20:58.913Z,100
2018-09-01T00:22:03.429Z,100
2018-09-01T00:23:07.946Z,100
2018-09-01T00:24:13.993Z,100
2018-09-01T00:25:20.543Z,100
2018-09-01T00:26:26.803Z,100
2018-09-01T00:27:30.727Z,100
2018-09-01T00:28:34.691Z,100
2018-09-01T00:29:40.638Z,100
2018-09-01T00:30:47.637Z,100
2018-09-01T00:31:54.251Z,100
2018-09-01T00:33:00.189Z,100
2018-09-01T00:34:04.543Z,100
2018-09-01T00:35:10.019Z,100
2018-09-01T00:36:16.601Z,100
2018-09-01T00:37:21.123Z,100
2018-09-01T00:38:25.582Z,100
2018-09-01T00:39:30.465Z,100
2018-09-01T00:40:34.742Z,100
2018-09-01T00:41:40.317Z,100
2018-09-01T00:42:45.912Z,100
2018-09-01T00:43:50.886Z,100
2018-09-01T00:44:56.561Z,100
2018-09-01T00:46:00.069Z,100
2018-09-01T00:47:04.543Z,100
2018-09-01T00:48:09.679Z,100
2018-09-01T00:49:12.841Z,100
2018-09-01T00:50:17.810Z,100
2018-09-01T00:51:22.174Z,100
2018-09-01T00:52:27.387Z,100
2018-09-01T00:53:31.872Z,100
2018-09-01T00:54:36.076Z,100
2018-09-01T00:55:39.773Z,100
2018-09-01T00:56:45.513Z,100
2018-09-01T00:57:51.049Z,100
2018-09-01T00:58:57.263Z,100
2018-09-01T01:00:02.490Z,100
2018-09-01T01:01:06.773Z,100
2018-09-01T01:02:11.771Z,100
2018-09-01T01:03:16.625Z,100
2018-09-01T01:04:20.635Z,100
2018-09-01T01:05:24.631Z,100
2018-09-01T01:06:29.370Z,100
2018-09-01T01:07:35.419Z,100
2018-09-01T01:08:41.090Z,100
2018-09-01T01:09:45.934Z,100
2018-09-01T01:10:50.660Z,100
2018-09-01T01:11:55.258Z,100
2018-09-01T01:12:59.774Z,100
2018-09-01T01:14:05.503Z,100
2018-09-01T01:15:11.104Z,100
2018-09-01T01:16:16.953Z,100
2018-09-01T01:17:22.618Z,100
2018-09-01T01:18:28.552Z,100
2018-09-01T01:19:33.349Z,100
2018-09-01T01:20:39.213Z,100
2018-09-01T01:21:44.861Z,100
2018-09-01T01:22:50.531Z,100
2018-09-01T01:23:55.803Z,100
2018-09-01T01:25:01.240Z,100
2018-09-01T01:26:06.956Z,100
2018-09-01T01:27:11.735Z,100
2018-09-01T01:28:15.864Z,100
2018-09-01T01:29:20.353Z,100
2018-09-01T01:30:25.331Z,100
2018-09-01T01:31:29.780Z,100
2018-09-01T01:32:34.820Z,100
2018-09-01T01:33:39.365Z,100
2018-09-01T01:34:47.381Z,100
2018-09-01T01:35:52.661Z,100
2018-09-01T01:36:57.624Z,100
2018-09-01T01:38:04.204Z,100
2018-09-01T01:39:11.129Z,100
2018-09-01T01:40:17.986Z,100
2018-09-01T01:41:24.128Z,100
2018-09-01T01:42:30.074Z,100
2018-09-01T01:43:34.179Z,100
2018-09-01T01:44:38.655Z,100
2018-09-01T01:45:43.406Z,100
2018-09-01T01:46:48.977Z,100
2018-09-01T01:47:54.205Z,100
2018-09-01T01:49:01.787Z,100
2018-09-01T01:50:07.523Z,100
2018-09-01T01:51:13.363Z,100
2018-09-01T01:52:18.775Z,100
2018-09-01T01:53:25.960Z,100
2018-09-01T01:54:32.723Z,100
2018-09-01T01:55:38.030Z,100
2018-09-01T01:56:43.697Z,100
2018-09-01T01:57:49.782Z,100
2018-09-01T01:58:56.013Z,100
2018-09-01T02:00:02.029Z,100
2018-09-01T02:01:06.950Z,100
2018-09-01T02:02:13.080Z,100
2018-09-01T02:03:19.451Z,100
2018-09-01T02:04:25.701Z,100
2018-09-01T02:05:29.295Z,100
2018-09-01T02:06:34.122Z,100
2018-09-01T02:07:40.378Z,100
2018-09-01T02:08:46.269Z,100
2018-09-01T02:09:51.374Z,100
2018-09-01T02:10:56.250Z,100
2018-09-01T02:12:00.705Z,100
2018-09-01T02:13:06.448Z,100
2018-09-01T02:14:12.046Z,100
2018-09-01T02:15:17.959Z,100
2018-09-01T02:16:24.025Z,100
2018-09-01T02:17:29.935Z,100
2018-09-01T02:18:35.460Z,100
2018-09-01T02:19:41.414Z,100
2018-09-01T02:20:44.646Z,100
2018-09-01T02:21:50.881Z,100
2018-09-01T02:22:56.050Z,100
2018-09-01T02:24:01.999Z,100
2018-09-01T02:25:07.320Z,100
2018-09-01T02:26:13.577Z,100
2018-09-01T02:27:18.980Z,100
2018-09-01T02:28:25.185Z,100
2018-09-01T02:29:31.889Z,100
2018-09-01T02:30:38.739Z,100
2018-09-01T02:31:44.458Z,100
2018-09-01T02:32:49.697Z,100
2018-09-01T02:33:55.750Z,100
2018-09-01T02:35:00.975Z,100
2018-09-01T02:36:05.836Z,100
2018-09-01T02:37:10.402Z,100
2018-09-01T02:38:16.869Z,100
2018-09-01T02:39:23.182Z,100
2018-09-01T02:40:28.908Z,100
2018-09-01T02:41:32.612Z,100
2018-09-01T02:42:38.397Z,100
2018-09-01T02:43:43.898Z,100
2018-09-01T02:44:48.827Z,100
2018-09-01T02:45:53.789Z,100
2018-09-01T02:47:00.895Z,100
2018-09-01T02:48:07.352Z,100
2018-09-01T02:49:14.614Z,100
2018-09-01T02:50:20.950Z,100
2018-09-01T02:51:25.890Z,100
2018-09-01T02:52:31.833Z,100
2018-09-01T02:53:36.890Z,100
2018-09-01T02:54:42.511Z,100
2018-09-01T02:55:49.014Z,100
2018-09-01T02:56:54.621Z,100
2018-09-01T02:58:00.971Z,100
2018-09-01T02:59:06.452Z,100
2018-09-01T03:00:11.692Z,100
2018-09-01T03:01:16.577Z,100
2018-09-01T03:02:23.540Z,100
2018-09-01T03:03:27.877Z,100
2018-09-01T03:04:33.330Z,100
2018-09-01T03:05:38.748Z,100
2018-09-01T03:06:44.482Z,100
2018-09-01T03:07:49.272Z,100
2018-09-01T03:08:56.189Z,100
2018-09-01T03:10:01.148Z,100
2018-09-01T03:11:05.685Z,100
2018-09-01T03:12:11.379Z,100
2018-09-01T03:13:16.821Z,100
2018-09-01T03:14:24.935Z,100
2018-09-01T03:15:30.051Z,100
2018-09-01T03:16:37.157Z,100
2018-09-01T03:17:43.433Z,100
2018-09-01T03:18:48.713Z,100
2018-09-01T03:19:53.077Z,100
2018-09-01T03:20:59.806Z,100
2018-09-01T03:22:07.081Z,100
2018-09-01T03:23:13.620Z,100
2018-09-01T03:24:20.858Z,100
2018-09-01T03:25:27.703Z,100
2018-09-01T03:26:34.448Z,100
2018-09-01T03:27:40.827Z,100
2018-09-01T03:28:48.023Z,100
2018-09-01T03:29:55.750Z,100
2018-09-01T03:31:01.510Z,100
2018-09-01T03:32:07.406Z,100
2018-09-01T03:33:13.297Z,100
2018-09-01T03:34:20.132Z,100
2018-09-01T03:35:25.434Z,100
2018-09-01T03:36:30.852Z,100
2018-09-01T03:37:36.717Z,100
2018-09-01T03:38:43.191Z,100
2018-09-01T03:39:49.761Z,100
2018-09-01T03:40:56.606Z,100
2018-09-01T03:42:03.869Z,100
2018-09-01T03:43:09.742Z,100
2018-09-01T03:44:17.390Z,100
2018-09-01T03:45:23.972Z,100
2018-09-01T03:46:30.731Z,100
2018-09-01T03:47:37.279Z,100
2018-09-01T03:48:42.712Z,100
2018-09-01T03:49:48.476Z,100
2018-09-01T03:50:54.999Z,100
2018-09-01T03:52:00.644Z,100
2018-09-01T03:53:07.843Z,100
2018-09-01T03:54:13.787Z,100
2018-09-01T03:55:20.207Z,100
2018-09-01T03:56:25.696Z,100
2018-09-01T03:57:31.854Z,100
2018-09-01T03:58:37.962Z,100
2018-09-01T03:59:44.630Z,100
2018-09-01T04:00:50.256Z,100
2018-09-01T04:01:54.205Z,100
2018-09-01T04:03:00.589Z,100
2018-09-01T04:04:06.104Z,100
2018-09-01T04:05:11.980Z,100
2018-09-01T04:06:17.542Z,100
2018-09-01T04:07:22.479Z,100
2018-09-01T04:08:28.686Z,100
2018-09-01T04:09:34.779Z,100
2018-09-01T04:10:41.570Z,100
2018-09-01T04:11:45.630Z,100
2018-09-01T04:12:51.388Z,100
2018-09-01T04:13:57.512Z,100
2018-09-01T04:15:04.019Z,100
2018-09-01T04:16:08.751Z,100
2018-09-01T04:17:15.765Z,100
2018-09-01T04:18:21.792Z,100
2018-09-01T04:19:28.313Z,100
2018-09-01T04:20:34.746Z,100
2018-09-01T04:21:40.985Z,100
2018-09-01T04:22:48.028Z,100
2018-09-01T04:23:55.217Z,100
2018-09-01T04:25:01.785Z,100
2018-09-01T04:26:08.481Z,100
2018-09-01T04:27:15.281Z,100
2018-09-01T04:28:22.246Z,100
2018-09-01T04:29:28.667Z,100
2018-09-01T04:30:33.851Z,100
2018-09-01T04:31:40.854Z,100
2018-09-01T04:32:46.565Z,100
2018-09-01T04:33:52.731Z,100
2018-09-01T04:34:57.915Z,100
2018-09-01T04:36:03.387Z,100
2018-09-01T04:37:09.432Z,100
2018-09-01T04:38:13.627Z,100
2018-09-01T04:39:20.003Z,100
2018-09-01T04:40:25.881Z,100
2018-09-01T04:41:32.137Z,100
2018-09-01T04:42:40.016Z,100
2018-09-01T04:43:47.196Z,100
2018-09-01T04:44:53.270Z,100
2018-09-01T04:45:59.223Z,100
2018-09-01T04:47:05.329Z,100
2018-09-01T04:48:13.119Z,100
2018-09-01T04:49:17.821Z,100
2018-09-01T04:50:23.208Z,100
2018-09-01T04:51:29.080Z,100
2018-09-01T04:52:34.286Z,100
2018-09-01T04:53:40.069Z,100
2018-09-01T04:54:46.279Z,100
2018-09-01T04:55:50.860Z,100
2018-09-01T04:56:58.385Z,100
2018-09-01T04:58:04.834Z,100
2018-09-01T04:59:11.575Z,100
2018-09-01T05:00:18.336Z,100
2018-09-01T05:01:25.169Z,100
2018-09-01T05:02:31.592Z,100
2018-09-01T05:03:36.848Z,100
2018-09-01T05:04:42.327Z,100
2018-09-01T05:05:49.107Z,100
2018-09-01T05:06:55.473Z,100
2018-09-01T05:07:59.842Z,100
2018-09-01T05:09:05.057Z,100
2018-09-01T05:10:11.314Z,100
2018-09-01T05:11:16.586Z,100
2018-09-01T05:12:22.877Z,100
2018-09-01T05:13:28.430Z,100
2018-09-01T05:14:34.877Z,100
2018-09-01T05:15:41.561Z,100
2018-09-01T05:16:46.598Z,100
2018-09-01T05:17:52.577Z,100
2018-09-01T05:18:58.328Z,100
2018-09-01T05:20:04.295Z,100
2018-09-01T05:21:11.420Z,100
2018-09-01T05:22:17.748Z,100
2018-09-01T05:23:23.435Z,100
2018-09-01T05:24:29.167Z,100
2018-09-01T05:25:34.860Z,100
2018-09-01T05:26:39.836Z,100
2018-09-01T05:27:45.365Z,100
2018-09-01T05:28:51.748Z,100
2018-09-01T05:29:57.976Z,100
2018-09-01T05:31:05.407Z,100
2018-09-01T05:32:11.218Z,100
2018-09-01T05:33:17.532Z,100
2018-09-01T05:34:23.116Z,100
2018-09-01T05:35:28.949Z,100
2018-09-01T05:36:35.845Z,100
2018-09-01T05:37:43.005Z,100
2018-09-01T05:38:48.968Z,100
2018-09-01T05:39:54.346Z,100
2018-09-01T05:41:01.766Z,100
2018-09-01T05:42:07.527Z,100
2018-09-01T05:43:13.403Z,100
2018-09-01T05:44:20.302Z,100
2018-09-01T05:45:26.695Z,100
2018-09-01T05:46:31.702Z,100
2018-09-01T05:47:38.194Z,100
2018-09-01T05:48:43.993Z,100
2018-09-01T05:49:49.018Z,100
2018-09-01T05:50:56.685Z,100
2018-09-01T05:52:03.685Z,100
2018-09-01T05:53:10.954Z,100
2018-09-01T05:54:17.317Z,100
2018-09-01T05:55:23.936Z,100
2018-09-01T05:56:30.347Z,100
2018-09-01T05:57:37.475Z,100
2018-09-01T05:58:45.296Z,100
2018-09-01T05:59:52.233Z,100
2018-09-01T06:00:58.188Z,100
2018-09-01T06:02:04.753Z,100
2018-09-01T06:03:11.014Z,100
2018-09-01T06:04:16.645Z,100
2018-09-01T06:05:22.265Z,100
2018-09-01T06:06:27.946Z,100
2018-09-01T06:07:35.068Z,100
2018-09-01T06:08:42.518Z,100
2018-09-01T06:10:17.465Z,100
2018-09-01T06:11:22.755Z,100
2018-09-01T06:12:28.222Z,100
2018-09-01T06:13:35.022Z,100
2018-09-01T06:14:41.109Z,100
2018-09-01T06:15:47.970Z,100
2018-09-01T06:16:55.626Z,100
2018-09-01T06:18:03.175Z,100
2018-09-01T06:19:08.241Z,100
2018-09-01T06:20:14.673Z,100
2018-09-01T06:21:19.858Z,100
2018-09-01T06:22:25.905Z,100
2018-09-01T06:23:31.164Z,100
2018-09-01T06:24:37.182Z,100
2018-09-01T06:25:43.113Z,100
2018-09-01T06:26:49.091Z,100
2018-09-01T06:27:54.169Z,100
2018-09-01T06:29:00.103Z,100
2018-09-01T06:30:06.829Z,100
2018-09-01T06:31:13.188Z,100
2018-09-01T06:32:20.286Z,100
2018-09-01T06:33:27.244Z,100
2018-09-01T06:34:33.066Z,100
2018-09-01T06:35:38.031Z,100
2018-09-01T06:36:41.881Z,100
2018-09-01T06:37:49.027Z,100
2018-09-01T06:38:54.893Z,100
2018-09-01T06:40:01.877Z,100
2018-09-01T06:41:09.598Z,100
2018-09-01T06:42:15.983Z,100
2018-09-01T06:43:22.004Z,100
2018-09-01T06:44:30.144Z,100
2018-09-01T06:45:35.449Z,100
2018-09-01T06:46:40.075Z,100
2018-09-01T06:47:44.536Z,100
2018-09-01T06:48:49.375Z,100
2018-09-01T06:49:55.823Z,100
2018-09-01T06:51:02.265Z,100
2018-09-01T06:52:09.919Z,100
2018-09-01T06:53:17.175Z,100
2018-09-01T06:54:23.669Z,100
2018-09-01T06:55:30.371Z,100
2018-09-01T06:56:35.899Z,100
2018-09-01T06:57:42.454Z,100
2018-09-01T06:58:48.652Z,100
2018-09-01T06:59:53.977Z,100
2018-09-01T07:00:59.841Z,100
2018-09-01T07:02:06.138Z,100
2018-09-01T07:03:11.399Z,100
2018-09-01T07:04:17.825Z,100
2018-09-01T07:05:23.435Z,100
2018-09-01T07:06:28.373Z,100
2018-09-01T07:07:34.881Z,100
2018-09-01T07:08:41.729Z,100
2018-09-01T07:09:48.803Z,100
2018-09-01T07:10:54.402Z,100
2018-09-01T07:12:03.734Z,100
2018-09-01T07:13:08.942Z,100
2018-09-01T07:14:14.808Z,100
2018-09-01T07:15:20.212Z,100
2018-09-01T07:16:24.241Z,100
2018-09-01T07:17:28.395Z,100
2018-09-01T07:18:33.355Z,100
2018-09-01T07:19:39.552Z,100
2018-09-01T07:20:44.002Z,100
2018-09-01T07:21:51.180Z,100
2018-09-01T07:22:57.798Z,100
2018-09-01T07:24:02.993Z,100
2018-09-01T07:25:10.052Z,100
2018-09-01T07:26:15.943Z,100
2018-09-01T07:27:22.517Z,100
2018-09-01T07:28:28.869Z,100
2018-09-01T07:29:34.639Z,100
2018-09-01T07:30:39.629Z,100
2018-09-01T07:31:46.701Z,100
2018-09-01T07:32:53.210Z,100
2018-09-01T07:33:58.586Z,100
2018-09-01T07:35:05.648Z,100
2018-09-01T07:36:09.208Z,100
2018-09-01T07:37:13.284Z,100
2018-09-01T07:38:19.861Z,100
2018-09-01T07:39:25.172Z,100
2018-09-01T07:40:30.131Z,100
2018-09-01T07:41:35.007Z,100
2018-09-01T07:42:39.887Z,100
2018-09-01T07:43:46.507Z,100
2018-09-01T07:44:52.583Z,100
2018-09-01T07:45:57.674Z,100
2018-09-01T07:47:02.414Z,100
2018-09-01T07:48:09.219Z,100
2018-09-01T07:49:15.434Z,100
2018-09-01T07:50:21.093Z,100
2018-09-01T07:51:28.194Z,100
2018-09-01T07:52:33.605Z,100
2018-09-01T07:53:37.503Z,100
2018-09-01T07:54:42.431Z,100
2018-09-01T07:55:47.671Z,100
2018-09-01T07:56:52.324Z,100
2018-09-01T07:57:56.787Z,100
2018-09-01T07:59:00.134Z,100
2018-09-01T08:00:04.643Z,100
2018-09-01T08:01:09.431Z,99
2018-09-01T08:02:13.558Z,99
2018-09-01T08:03:16.661Z,99
2018-09-01T08:04:18.837Z,98
2018-09-01T08:05:20.931Z,99
2018-09-01T08:06:23.041Z,98
2018-09-01T08:07:25.200Z,98
2018-09-01T08:08:27.264Z,98
2018-09-01T08:09:29.356Z,98
2018-09-01T08:10:31.474Z,98
2018-09-01T08:11:33.593Z,97
2018-09-01T08:12:35.726Z,97
2018-09-01T08:13:37.911Z,96
2018-09-01T08:14:40.001Z,96
2018-09-01T08:15:42.090Z,96
2018-09-01T08:16:44.494Z,96
2018-09-01T08:17:46.625Z,97
2018-09-01T08:18:48.746Z,96
2018-09-01T08:19:50.859Z,95
2018-09-01T08:20:53.041Z,95
2018-09-01T08:21:55.159Z,95
2018-09-01T08:22:57.294Z,94
2018-09-01T08:24:00.261Z,94
2018-09-01T08:25:02.372Z,93
2018-09-01T08:26:04.481Z,94
2018-09-01T08:27:06.593Z,93
2018-09-01T08:28:08.703Z,93
2018-09-01T08:29:10.816Z,94
2018-09-01T08:30:13.605Z,94
2018-09-01T08:31:15.699Z,93
2018-09-01T08:32:17.816Z,94
2018-09-01T08:33:19.923Z,92
2018-09-01T08:34:22.042Z,92
2018-09-01T08:35:24.145Z,91
2018-09-01T08:36:26.245Z,92
2018-09-01T08:37:28.358Z,91
2018-09-01T08:38:30.452Z,90
2018-09-01T08:39:32.556Z,91
2018-09-01T08:40:34.719Z,91
2018-09-01T08:41:36.829Z,89
2018-09-01T08:42:38.922Z,86
2018-09-01T08:43:41.041Z,86
2018-09-01T08:44:43.141Z,85
2018-09-01T08:45:45.245Z,85
2018-09-01T08:46:47.361Z,84
2018-09-01T08:47:49.460Z,83
2018-09-01T08:48:51.572Z,82
2018-09-01T08:49:53.973Z,81
2018-09-01T08:50:56.772Z,80
2018-09-01T08:51:58.875Z,79
2018-09-01T08:53:00.989Z,79
2018-09-01T08:54:03.110Z,80
2018-09-01T08:55:05.207Z,80
2018-09-01T08:56:07.325Z,79
2018-09-01T08:57:09.829Z,77
2018-09-01T08:58:11.929Z,78
2018-09-01T08:59:14.040Z,77
2018-09-01T09:00:16.950Z,77
2018-09-01T09:01:19.351Z,77
2018-09-01T09:02:21.472Z,76
2018-09-01T09:03:23.589Z,76
2018-09-01T09:04:25.692Z,75
2018-09-01T09:05:27.866Z,74
2018-09-01T09:06:29.932Z,75
2018-09-01T09:07:32.033Z,75
2018-09-01T09:08:34.545Z,74
2018-09-01T09:09:36.659Z,73
2018-09-01T09:10:39.072Z,73
2018-09-01T09:11:41.788Z,74
2018-09-01T09:12:43.859Z,73
2018-09-01T09:13:45.973Z,71
2018-09-01T09:14:48.083Z,72
2018-09-01T09:15:50.210Z,73
2018-09-01T09:16:52.314Z,73
2018-09-01T09:17:54.738Z,73
2018-09-01T09:18:56.860Z,71
2018-09-01T09:19:58.972Z,73
2018-09-01T09:21:01.096Z,71
2018-09-01T09:22:03.209Z,70
2018-09-01T09:23:05.333Z,70
2018-09-01T09:24:07.434Z,72
2018-09-01T09:25:09.565Z,70
2018-09-01T09:26:11.960Z,70
2018-09-01T09:27:14.077Z,69
2018-09-01T09:28:16.511Z,69
2018-09-01T09:29:18.617Z,69
2018-09-01T09:30:20.734Z,69
2018-09-01T09:31:23.164Z,68
2018-09-01T09:32:25.283Z,68
2018-09-01T09:33:27.390Z,67
2018-09-01T09:34:29.586Z,66
2018-09-01T09:35:31.625Z,66
2018-09-01T09:36:33.738Z,65
2018-09-01T09:37:35.868Z,65
2018-09-01T09:38:37.991Z,64
2018-09-01T09:39:40.102Z,64
2018-09-01T09:40:42.266Z,64
2018-09-01T09:41:44.883Z,64
2018-09-01T09:42:46.998Z,64
2018-09-01T09:43:49.531Z,63
2018-09-01T09:44:51.643Z,63
2018-09-01T09:45:53.773Z,63
2018-09-01T09:46:55.905Z,64
2018-09-01T09:47:58.029Z,63
2018-09-01T09:49:00.150Z,62
2018-09-01T09:50:02.623Z,61
2018-09-01T09:51:05.190Z,62
2018-09-01T09:52:07.317Z,63
2018-09-01T09:53:09.933Z,61
2018-09-01T09:54:11.998Z,61
2018-09-01T09:55:14.111Z,60
2018-09-01T09:56:16.525Z,59
2018-09-01T09:57:18.634Z,59
2018-09-01T09:58:21.295Z,59
2018-09-01T09:59:23.344Z,60
2018-09-01T10:00:25.461Z,59
2018-09-01T10:01:27.603Z,60
2018-09-01T10:02:30.133Z,60
2018-09-01T10:03:32.237Z,61
2018-09-01T10:04:34.360Z,60
2018-09-01T10:05:36.958Z,59
2018-09-01T10:06:39.047Z,57
2018-09-01T10:07:41.481Z,57
2018-09-01T10:08:43.883Z,56
2018-09-01T10:09:46.700Z,58
2018-09-01T10:10:48.897Z,59
2018-09-01T10:11:51.720Z,57
2018-09-01T10:12:54.412Z,57
2018-09-01T10:13:56.923Z,56
2018-09-01T10:14:59.042Z,57
2018-09-01T10:16:02.323Z,59
2018-09-01T10:17:04.461Z,60
2018-09-01T10:18:06.585Z,61
2018-09-01T10:19:08.707Z,59
2018-09-01T10:20:11.532Z,60
2018-09-01T10:21:13.491Z,62
2018-09-01T10:22:15.597Z,59
2018-09-01T10:23:17.735Z,59
2018-09-01T10:24:19.816Z,58
2018-09-01T10:25:22.186Z,59
2018-09-01T10:26:24.249Z,57
2018-09-01T10:27:26.306Z,57
2018-09-01T10:28:28.770Z,58
2018-09-01T10:29:31.402Z,59
2018-09-01T10:30:33.766Z,61
2018-09-01T10:31:35.816Z,61
2018-09-01T10:32:37.927Z,59
2018-09-01T10:33:40.502Z,58
2018-09-01T10:34:42.558Z,58
2018-09-01T10:35:44.621Z,57
2018-09-01T10:36:46.782Z,59
2018-09-01T10:37:49.438Z,58
2018-09-01T10:38:51.477Z,58
2018-09-01T10:39:53.543Z,56
2018-09-01T10:40:55.587Z,57
2018-09-01T10:41:57.640Z,57
2018-09-01T10:42:59.698Z,57
2018-09-01T10:44:01.740Z,58
2018-09-01T10:45:03.804Z,56
2018-09-01T10:46:05.859Z,52
2018-09-01T10:47:07.903Z,52
2018-09-01T10:48:09.964Z,52
2018-09-01T10:49:12.020Z,52
2018-09-01T10:50:14.380Z,51
2018-09-01T10:51:16.441Z,52
2018-09-01T10:52:18.485Z,53
2018-09-01T10:53:20.540Z,53
2018-09-01T10:54:22.590Z,54
2018-09-01T10:55:24.653Z,53
2018-09-01T10:56:26.703Z,54
2018-09-01T10:57:28.800Z,53
2018-09-01T10:58:30.847Z,50
2018-09-01T10:59:32.987Z,50
2018-09-01T11:00:35.245Z,52
2018-09-01T11:01:37.682Z,51
2018-09-01T11:02:39.741Z,51
2018-09-01T11:03:41.784Z,50
2018-09-01T11:04:43.847Z,49
2018-09-01T11:05:46.417Z,50
2018-09-01T11:06:48.758Z,48
2018-09-01T11:07:50.809Z,48
2018-09-01T11:08:53.550Z,50
2018-09-01T11:09:55.605Z,50
2018-09-01T11:10:57.935Z,50
2018-09-01T11:11:59.986Z,51
2018-09-01T11:13:02.084Z,50
2018-09-01T11:14:04.699Z,50
2018-09-01T11:15:08.659Z,50
2018-09-01T11:16:13.414Z,49
2018-09-01T11:17:17.215Z,49
2018-09-01T11:18:21.983Z,50
2018-09-01T11:19:26.083Z,50
2018-09-01T11:20:31.460Z,50
2018-09-01T11:21:36.702Z,50
2018-09-01T11:22:40.073Z,50
2018-09-01T11:23:44.741Z,50
2018-09-01T11:24:49.125Z,49
2018-09-01T11:25:55.094Z,49
2018-09-01T11:27:00.340Z,49
2018-09-01T11:28:05.726Z,49
2018-09-01T11:29:10.764Z,49
2018-09-01T11:30:16.384Z,50
2018-09-01T11:31:22.192Z,50
2018-09-01T11:32:27.905Z,51
2018-09-01T11:33:33.928Z,50
2018-09-01T11:34:39.893Z,50
2018-09-01T11:35:45.978Z,49
2018-09-01T11:36:52.756Z,49
2018-09-01T11:37:58.893Z,48
2018-09-01T11:39:05.266Z,49
2018-09-01T11:40:11.907Z,48
2018-09-01T11:41:16.902Z,48
2018-09-01T11:42:22.310Z,49
2018-09-01T11:43:28.076Z,47
2018-09-01T11:44:33.931Z,48
2018-09-01T11:45:38.579Z,49
2018-09-01T11:46:42.546Z,48
2018-09-01T11:47:48.852Z,46
2018-09-01T11:48:55.099Z,47
2018-09-01T11:50:00.759Z,46
2018-09-01T11:51:07.076Z,46
2018-09-01T11:52:13.522Z,45
2018-09-01T11:53:21.151Z,46
2018-09-01T11:54:27.579Z,47
2018-09-01T11:55:34.581Z,45
2018-09-01T11:56:41.093Z,45
2018-09-01T11:57:46.335Z,46
2018-09-01T11:58:53.272Z,45
2018-09-01T11:59:58.843Z,47
2018-09-01T12:01:04.382Z,47
2018-09-01T12:02:08.644Z,46
2018-09-01T12:03:14.586Z,47
2018-09-01T12:04:19.609Z,46
2018-09-01T12:05:25.196Z,47
2018-09-01T12:06:29.690Z,47
2018-09-01T12:07:35.094Z,48
2018-09-01T12:08:41.011Z,47
2018-09-01T12:09:45.700Z,46
2018-09-01T12:10:50.770Z,46
2018-09-01T12:11:55.870Z,46
2018-09-01T12:13:00.332Z,47
2018-09-01T12:14:04.734Z,47
2018-09-01T12:15:09.842Z,47
2018-09-01T12:16:15.261Z,47
2018-09-01T12:17:22.002Z,47
2018-09-01T12:18:28.236Z,47
2018-09-01T12:19:35.348Z,47
2018-09-01T12:20:39.116Z,48
2018-09-01T12:21:45.179Z,48
2018-09-01T12:22:49.263Z,48
2018-09-01T12:23:54.892Z,47
2018-09-01T12:25:01.433Z,49
2018-09-01T12:26:07.159Z,48
2018-09-01T12:27:12.902Z,48
2018-09-01T12:28:18.145Z,49
2018-09-01T12:29:24.027Z,48
2018-09-01T12:30:29.741Z,48
2018-09-01T12:31:35.845Z,49
2018-09-01T12:32:41.093Z,48
2018-09-01T12:33:46.606Z,48
2018-09-01T12:34:51.085Z,48
2018-09-01T12:35:57.349Z,49
2018-09-01T12:37:03.440Z,49
2018-09-01T12:38:09.851Z,50
2018-09-01T12:39:15.291Z,50
2018-09-01T12:40:20.401Z,49
2018-09-01T12:41:25.359Z,49
2018-09-01T12:42:30.327Z,49
2018-09-01T12:43:36.867Z,50
2018-09-01T12:44:43.399Z,49
2018-09-01T12:45:47.779Z,49
2018-09-01T12:46:53.639Z,49
2018-09-01T12:47:59.486Z,50
2018-09-01T12:49:05.457Z,48
2018-09-01T12:50:11.919Z,48
2018-09-01T12:51:18.480Z,49
2018-09-01T12:52:23.353Z,48
2018-09-01T12:53:28.734Z,50
2018-09-01T12:54:35.103Z,49
2018-09-01T12:55:41.595Z,49
2018-09-01T12:56:46.953Z,49
2018-09-01T12:57:50.759Z,49
2018-09-01T12:58:56.142Z,50
2018-09-01T13:00:01.969Z,50
2018-09-01T13:01:06.457Z,49
2018-09-01T13:02:11.580Z,48
2018-09-01T13:03:18.217Z,50
2018-09-01T13:04:23.709Z,50
2018-09-01T13:05:30.025Z,49
2018-09-01T13:06:35.344Z,49
2018-09-01T13:07:39.612Z,50
2018-09-01T13:08:44.392Z,50
2018-09-01T13:09:48.988Z,49
2018-09-01T13:10:54.459Z,47
2018-09-01T13:11:58.950Z,48
2018-09-01T13:13:04.418Z,49
2018-09-01T13:14:09.220Z,50
2018-09-01T13:15:13.200Z,50
2018-09-01T13:16:16.920Z,49
2018-09-01T13:17:19.867Z,49
2018-09-01T13:18:25.308Z,50
2018-09-01T13:19:30.804Z,50
2018-09-01T13:20:35.457Z,50
2018-09-01T13:21:39.024Z,50
2018-09-01T13:22:43.531Z,48
2018-09-01T13:23:49.556Z,48
2018-09-01T13:24:55.931Z,51
2018-09-01T13:26:01.513Z,51
2018-09-01T13:27:07.184Z,51
2018-09-01T13:28:13.090Z,49
2018-09-01T13:29:18.581Z,51
2018-09-01T13:30:23.252Z,50
2018-09-01T13:31:28.321Z,51
2018-09-01T13:32:33.409Z,50
2018-09-01T13:33:38.935Z,50
2018-09-01T13:34:43.402Z,51
2018-09-01T13:35:49.106Z,51
2018-09-01T13:36:54.996Z,51
2018-09-01T13:38:01.119Z,51
2018-09-01T13:39:08.131Z,52
2018-09-01T13:40:14.611Z,50
2018-09-01T13:41:19.587Z,51
2018-09-01T13:42:25.662Z,51
2018-09-01T13:43:31.911Z,52
2018-09-01T13:44:38.087Z,51
2018-09-01T13:45:44.159Z,51
2018-09-01T13:46:48.160Z,51
2018-09-01T13:47:53.970Z,51
2018-09-01T13:49:00.306Z,51
2018-09-01T13:50:06.613Z,52
2018-09-01T13:51:11.706Z,49
2018-09-01T13:52:18.590Z,50
2018-09-01T13:53:24.717Z,52
2018-09-01T13:54:30.517Z,50
2018-09-01T13:55:36.976Z,51
2018-09-01T13:56:43.008Z,53
2018-09-01T13:57:48.792Z,53
2018-09-01T13:58:54.365Z,53
2018-09-01T14:00:01.205Z,53
2018-09-01T14:01:07.415Z,53
2018-09-01T14:02:12.836Z,54
2018-09-01T14:03:16.915Z,54
2018-09-01T14:04:23.370Z,54
2018-09-01T14:05:28.481Z,54
2018-09-01T14:06:35.435Z,55
2018-09-01T14:07:41.761Z,53
2018-09-01T14:08:46.923Z,54
2018-09-01T14:09:52.749Z,53
2018-09-01T14:10:58.912Z,53
2018-09-01T14:12:03.320Z,52
2018-09-01T14:13:08.321Z,54
2018-09-01T14:14:15.309Z,53
2018-09-01T14:15:21.997Z,52
2018-09-01T14:16:26.705Z,52
2018-09-01T14:17:31.298Z,51
2018-09-01T14:18:37.473Z,53
2018-09-01T14:19:44.826Z,54
2018-09-01T14:20:51.065Z,53
2018-09-01T14:21:57.201Z,51
2018-09-01T14:23:04.144Z,51
2018-09-01T14:24:10.571Z,50
2018-09-01T14:25:15.243Z,51
2018-09-01T14:26:21.362Z,53
2018-09-01T14:27:27.037Z,53
2018-09-01T14:28:31.717Z,52
2018-09-01T14:29:36.251Z,52
2018-09-01T14:30:39.412Z,52
2018-09-01T14:31:43.074Z,54
2018-09-01T14:32:48.064Z,54
2018-09-01T14:33:53.676Z,52
2018-09-01T14:34:59.614Z,53
2018-09-01T14:36:05.218Z,53
2018-09-01T14:37:09.353Z,53
2018-09-01T14:38:13.485Z,53
2018-09-01T14:39:19.885Z,53
2018-09-01T14:40:25.809Z,54
2018-09-01T14:41:31.300Z,53
2018-09-01T14:42:35.753Z,53
2018-09-01T14:43:41.312Z,52
2018-09-01T14:44:46.085Z,52
2018-09-01T14:45:49.077Z,53
2018-09-01T14:46:54.426Z,54
2018-09-01T14:47:59.585Z,55
2018-09-01T14:49:04.248Z,54
2018-09-01T14:50:08.611Z,54
2018-09-01T14:51:13.668Z,54
2018-09-01T14:52:20.081Z,54
2018-09-01T14:53:26.033Z,55
2018-09-01T14:54:29.898Z,54
2018-09-01T14:55:36.657Z,55
2018-09-01T14:56:41.633Z,54
2018-09-01T14:57:49.256Z,54
2018-09-01T14:58:54.984Z,53
2018-09-01T14:59:59.415Z,52
2018-09-01T15:01:04.305Z,53
2018-09-01T15:02:09.434Z,55
2018-09-01T15:03:16.307Z,53
2018-09-01T15:04:20.875Z,54
2018-09-01T15:05:26.173Z,54
2018-09-01T15:06:32.516Z,53
2018-09-01T15:07:40.444Z,53
2018-09-01T15:08:46.471Z,53